Time;durP1;ratioP1;P1;durP2;ratioP2;P2;SDS_P1;SDS_P2;PMS_P1;PMS_P2;Temp;Humidity;BMP_temperature;BMP_pressure;BME280_temperature;BME280_humidity;BME280_pressure;Samples;Min_cycle;Max_cycle;Signal;HPM_P1;HPM_P2
2022/04/10 00:01:08;;;;;;;4.00;3.70;;;2.80;99.90;;;;;;5069363;28;20207;-83
2022/04/10 00:03:35;;;;;;;5.25;3.20;;;2.70;99.90;;;;;;5069160;28;20670;-82
2022/04/10 00:06:03;;;;;;;4.65;3.50;;;3.00;99.90;;;;;;5068348;28;20211;-83
2022/04/10 00:08:30;;;;;;;5.80;4.10;;;2.80;99.90;;;;;;5069501;28;20203;-83
2022/04/10 00:10:57;;;;;;;3.75;3.22;;;2.90;99.90;;;;;;5069180;28;20708;-83
2022/04/10 00:13:26;;;;;;;7.68;3.42;;;2.90;99.90;;;;;;5069061;28;20188;-82
2022/04/10 00:15:54;;;;;;;4.40;4.00;;;3.70;99.90;;;;;;5068350;28;20206;-83
2022/04/10 00:18:21;;;;;;;4.75;4.22;;;2.90;99.90;;;;;;5068676;28;20202;-82
2022/04/10 00:20:49;;;;;;;6.13;3.20;;;2.90;99.90;;;;;;5068937;28;20296;-83
2022/04/10 00:23:19;;;;;;;6.93;4.00;;;2.70;99.90;;;;;;5069030;28;20278;-82
2022/04/10 00:25:47;;;;;;;4.43;3.80;;;2.90;99.90;;;;;;5068593;28;20286;-83
2022/04/10 00:28:15;;;;;;;8.02;4.40;;;2.90;99.90;;;;;;5068914;28;20199;-82
2022/04/10 00:30:43;;;;;;;5.03;4.60;;;2.90;99.90;;;;;;5068423;28;20298;-82
2022/04/10 00:33:11;;;;;;;4.97;3.60;;;2.90;99.90;;;;;;5068708;28;20231;-82
2022/04/10 00:35:39;;;;;;;3.83;3.53;;;2.80;99.90;;;;;;5067168;28;20620;-82
2022/04/10 00:38:06;;;;;;;4.10;3.80;;;2.80;99.90;;;;;;5068980;28;20199;-82
2022/04/10 00:40:35;;;;;;;4.90;3.70;;;3.00;99.90;;;;;;5068670;28;20284;-82
2022/04/10 00:43:02;;;;;;;5.07;3.83;;;2.90;99.90;;;;;;5068738;28;20302;-82
2022/04/10 00:45:29;;;;;;;4.50;4.10;;;2.90;99.90;;;;;;5067689;28;20607;-82
2022/04/10 00:47:56;;;;;;;6.53;4.70;;;2.90;99.90;;;;;;5068600;28;20723;-82
2022/04/10 00:50:23;;;;;;;5.80;4.05;;;2.90;99.90;;;;;;5068544;28;20211;-82
2022/04/10 00:52:51;;;;;;;5.43;4.00;;;2.90;99.90;;;;;;5068661;28;20264;-82
2022/04/10 00:55:18;;;;;;;5.32;3.22;;;2.90;99.90;;;;;;5067847;28;20248;-82
2022/04/10 00:57:48;;;;;;;5.55;3.90;;;2.90;99.90;;;;;;5069021;28;20239;-82
2022/04/10 01:00:17;;;;;;;6.00;3.92;;;2.90;99.90;;;;;;5068804;28;20199;-82
2022/04/10 01:02:44;;;;;;;6.20;3.65;;;2.90;99.90;;;;;;5068159;28;20205;-82
2022/04/10 01:05:11;;;;;;;5.32;3.83;;;2.90;99.90;;;;;;5067652;28;20227;-82
2022/04/10 01:07:39;;;;;;;4.78;4.13;;;2.90;99.90;;;;;;5068421;28;20196;-82
2022/04/10 01:10:07;;;;;;;4.72;3.90;;;2.80;99.90;;;;;;5067744;28;20674;-82
2022/04/10 01:12:35;;;;;;;4.57;4.07;;;2.80;99.90;;;;;;5068586;28;20230;-82
2022/04/10 01:15:06;;;;;;;4.03;3.60;;;2.70;99.90;;;;;;5068186;28;20690;-82
2022/04/10 01:17:33;;;;;;;5.07;4.57;;;2.70;99.90;;;;;;5068521;28;20211;-82
2022/04/10 01:20:01;;;;;;;4.13;3.55;;;2.80;99.90;;;;;;5068435;28;20679;-83
2022/04/10 01:22:34;;;;;;;5.78;4.50;;;2.70;99.90;;;;;;5068593;28;20203;-82
2022/04/10 01:25:06;;;;;;;5.38;4.03;;;2.70;99.90;;;;;;5067950;28;20215;-82
2022/04/10 01:27:38;;;;;;;5.03;4.50;;;2.70;99.90;;;;;;5068972;28;20299;-82
2022/04/10 01:30:06;;;;;;;4.95;4.18;;;2.60;99.90;;;;;;5068145;28;20210;-82
2022/04/10 01:32:35;;;;;;;3.83;3.50;;;2.60;99.90;;;;;;5068740;28;20599;-82
2022/04/10 01:35:04;;;;;;;5.40;4.28;;;2.60;99.90;;;;;;5067036;28;20215;-82
2022/04/10 01:37:36;;;;;;;14.27;5.20;;;2.50;99.90;;;;;;5068280;28;20716;-82
2022/04/10 01:40:03;;;;;;;4.93;4.40;;;2.60;99.90;;;;;;5068325;28;20203;-82
2022/04/10 01:42:30;;;;;;;4.00;3.60;;;2.60;99.90;;;;;;5068752;28;20681;-82
2022/04/10 01:44:58;;;;;;;6.93;4.57;;;2.40;99.90;;;;;;5068174;28;20251;-82
2022/04/10 01:47:25;;;;;;;5.32;4.10;;;2.50;99.90;;;;;;5067944;28;20229;-82
2022/04/10 01:49:52;;;;;;;5.40;4.45;;;2.60;99.90;;;;;;5068266;28;20633;-82
2022/04/10 01:52:19;;;;;;;6.22;5.57;;;2.60;99.90;;;;;;5068520;28;20211;-82
2022/04/10 01:54:47;;;;;;;5.57;3.83;;;2.60;99.90;;;;;;5068380;28;20286;-82
2022/04/10 01:57:14;;;;;;;4.75;4.35;;;2.60;99.90;;;;;;5067977;28;20207;-82
2022/04/10 01:59:41;;;;;;;3.80;3.30;;;2.70;99.90;;;;;;5068467;28;20280;-82
2022/04/10 02:02:08;;;;;;;5.00;4.60;;;2.70;99.90;;;;;;5068401;28;20235;-82
2022/04/10 02:04:35;;;;;;;4.13;3.72;;;2.70;99.90;;;;;;5068188;28;20223;-82
2022/04/10 02:07:02;;;;;;;4.75;3.50;;;2.70;99.90;;;;;;5067625;28;20303;-82
2022/04/10 02:09:29;;;;;;;5.25;3.88;;;2.70;99.90;;;;;;5068429;28;20294;-82
2022/04/10 02:11:57;;;;;;;4.53;4.03;;;2.60;99.90;;;;;;5067783;28;20230;-82
2022/04/10 02:14:24;;;;;;;6.30;4.40;;;3.50;99.90;;;;;;5067848;28;20298;-82
2022/04/10 02:16:51;;;;;;;4.10;3.75;;;2.60;99.90;;;;;;5066972;28;20290;-82
2022/04/10 02:19:18;;;;;;;5.78;4.60;;;2.60;99.90;;;;;;5067480;28;20207;-82
2022/04/10 02:21:45;;;;;;;10.60;4.15;;;2.50;99.90;;;;;;5070586;28;20242;-82
2022/04/10 02:24:13;;;;;;;4.68;4.22;;;2.50;99.90;;;;;;5071832;28;20222;-82
2022/04/10 02:26:40;;;;;;;3.88;3.58;;;2.50;99.90;;;;;;5070653;28;20207;-82
2022/04/10 02:29:08;;;;;;;5.90;3.80;;;2.50;99.90;;;;;;5071025;28;20612;-82
2022/04/10 02:31:35;;;;;;;8.57;4.63;;;2.50;99.90;;;;;;5070912;28;20302;-82
2022/04/10 02:34:02;;;;;;;4.47;4.00;;;2.50;99.90;;;;;;5069668;28;20289;-83
2022/04/10 02:36:29;;;;;;;4.30;3.90;;;2.50;99.90;;;;;;5070511;28;20616;-82
2022/04/10 02:38:55;;;;;;;5.20;4.13;;;2.50;99.90;;;;;;5071205;28;20213;-82
2022/04/10 02:41:22;;;;;;;4.75;4.22;;;2.50;99.90;;;;;;5070800;28;20207;-82
2022/04/10 02:43:49;;;;;;;5.43;4.97;;;2.50;99.90;;;;;;5071000;28;20206;-82
2022/04/10 02:46:17;;;;;;;4.85;4.38;;;2.40;99.90;;;;;;5070052;28;20276;-82
2022/04/10 02:48:44;;;;;;;7.25;5.13;;;2.40;99.90;;;;;;5071025;28;20257;-82
2022/04/10 02:51:11;;;;;;;5.18;4.55;;;2.30;99.90;;;;;;5070998;28;20622;-82
2022/04/10 02:53:38;;;;;;;6.45;5.70;;;2.50;99.90;;;;;;5070774;28;20305;-82
2022/04/10 02:56:05;;;;;;;4.90;4.07;;;2.30;99.90;;;;;;5070563;28;20298;-82
2022/04/10 02:58:32;;;;;;;10.77;4.53;;;2.30;99.90;;;;;;5070614;28;20227;-82
2022/04/10 03:00:58;;;;;;;5.07;4.57;;;2.30;99.90;;;;;;5070466;28;20225;-82
2022/04/10 03:03:27;;;;;;;6.82;5.65;;;2.50;99.90;;;;;;5070583;28;20199;-82
2022/04/10 03:05:54;;;;;;;5.65;4.07;;;2.10;99.90;;;;;;5049820;28;20755;-82
2022/04/10 03:08:21;;;;;;;5.45;4.70;;;2.10;99.90;;;;;;5050512;28;20274;-82
2022/04/10 03:10:48;;;;;;;5.50;4.57;;;2.10;99.90;;;;;;5050455;28;20663;-82
2022/04/10 03:13:15;;;;;;;5.97;5.38;;;2.10;99.90;;;;;;5049940;28;20750;-82
2022/04/10 03:15:42;;;;;;;7.80;5.28;;;2.10;99.90;;;;;;5049770;28;20192;-82
2022/04/10 03:18:09;;;;;;;6.53;5.53;;;2.00;99.90;;;;;;5050314;28;20287;-82
2022/04/10 03:20:37;;;;;;;6.43;5.82;;;2.00;99.90;;;;;;5050176;28;20207;-83
2022/04/10 03:23:08;;;;;;;8.30;4.07;;;2.00;99.90;;;;;;5050195;28;20251;-83
2022/04/10 03:25:36;;;;;;;5.40;4.72;;;2.00;99.90;;;;;;5049549;28;20231;-83
2022/04/10 03:28:03;;;;;;;4.80;4.30;;;1.90;99.90;;;;;;5049733;28;20222;-82
2022/04/10 03:30:30;;;;;;;5.38;4.88;;;1.90;99.90;;;;;;5050111;28;20624;-82
2022/04/10 03:32:56;;;;;;;6.47;5.15;;;2.00;99.90;;;;;;5049576;28;20230;-82
2022/04/10 03:35:23;;;;;;;6.10;5.13;;;1.90;99.90;;;;;;5048080;28;20239;-83
2022/04/10 03:37:52;;;;;;;5.35;4.85;;;1.90;99.90;;;;;;5049968;28;20293;-83
2022/04/10 03:40:19;;;;;;;7.95;5.82;;;2.00;99.90;;;;;;5054980;28;20230;-83
2022/04/10 03:42:46;;;;;;;7.78;5.75;;;1.90;99.90;;;;;;5070012;28;20203;-83
2022/04/10 03:45:13;;;;;;;8.93;6.93;;;2.00;99.90;;;;;;5069340;28;20237;-82
2022/04/10 03:47:40;;;;;;;5.95;4.95;;;2.00;99.90;;;;;;5069733;28;20310;-83
2022/04/10 03:50:08;;;;;;;5.88;5.30;;;2.00;99.90;;;;;;5069842;28;20269;-83
2022/04/10 03:52:34;;;;;;;6.72;5.85;;;1.90;99.90;;;;;;5069563;28;20211;-83
2022/04/10 03:55:04;;;;;;;6.63;5.93;;;1.90;99.90;;;;;;5069199;28;20202;-83
2022/04/10 03:57:30;;;;;;;6.32;5.72;;;1.90;99.90;;;;;;5069734;28;20293;-83
2022/04/10 03:59:58;;;;;;;5.65;5.13;;;1.80;99.90;;;;;;5069516;28;20253;-83
2022/04/10 04:02:24;;;;;;;10.25;7.07;;;1.70;99.90;;;;;;5069829;28;20305;-83
2022/04/10 04:04:52;;;;;;;7.18;5.40;;;1.70;99.90;;;;;;5069916;28;20272;-83
2022/04/10 04:07:19;;;;;;;7.47;5.60;;;1.60;99.90;;;;;;5068197;28;20218;-83
2022/04/10 04:09:45;;;;;;;6.93;6.22;;;1.70;99.90;;;;;;5069488;28;20222;-83
2022/04/10 04:12:14;;;;;;;7.07;6.28;;;1.60;99.90;;;;;;5069501;28;20629;-83
2022/04/10 04:14:41;;;;;;;7.88;7.07;;;1.60;99.90;;;;;;5069610;28;20234;-83
2022/04/10 04:17:08;;;;;;;7.32;6.63;;;1.60;99.90;;;;;;5068822;28;20211;-82
2022/04/10 04:19:35;;;;;;;7.10;6.15;;;1.60;99.90;;;;;;5069145;28;20211;-82
2022/04/10 04:22:02;;;;;;;7.55;6.65;;;1.60;99.90;;;;;;5068883;28;20207;-83
2022/04/10 04:24:29;;;;;;;7.65;6.07;;;1.60;99.90;;;;;;5069367;28;20268;-83
2022/04/10 04:26:56;;;;;;;9.70;6.80;;;1.70;99.90;;;;;;5068870;28;20666;-82
2022/04/10 04:29:24;;;;;;;8.05;6.75;;;1.70;99.90;;;;;;5069012;28;20219;-82
2022/04/10 04:31:52;;;;;;;8.38;7.20;;;1.60;99.90;;;;;;5069353;28;20302;-83
2022/04/10 04:34:21;;;;;;;7.55;6.85;;;1.70;99.90;;;;;;5068356;28;20265;-83
2022/04/10 04:36:47;;;;;;;7.53;6.82;;;1.70;99.90;;;;;;5068247;28;20239;-83
2022/04/10 04:39:14;;;;;;;6.90;6.20;;;2.40;99.90;;;;;;5069112;28;20211;-83
2022/04/10 04:41:41;;;;;;;10.27;6.93;;;1.80;99.90;;;;;;5069033;28;20623;-83
2022/04/10 04:44:08;;;;;;;8.60;7.60;;;1.90;99.90;;;;;;5067933;28;20614;-82
2022/04/10 04:46:36;;;;;;;8.93;6.75;;;1.90;99.90;;;;;;5068006;28;20781;-83
2022/04/10 04:49:04;;;;;;;8.25;7.10;;;1.90;99.90;;;;;;5068744;28;20264;-83
2022/04/10 04:51:34;;;;;;;8.77;7.20;;;2.10;99.90;;;;;;5068842;28;20203;-83
2022/04/10 04:54:01;;;;;;;10.38;7.72;;;2.00;99.90;;;;;;5069052;28;20214;-83
2022/04/10 04:56:27;;;;;;;8.75;7.55;;;2.10;99.90;;;;;;5068380;28;20656;-82
2022/04/10 04:58:55;;;;;;;10.70;7.82;;;2.10;99.90;;;;;;5068850;28;20310;-83
2022/04/10 05:01:22;;;;;;;8.80;7.47;;;2.20;99.90;;;;;;5068488;28;20207;-83
2022/04/10 05:03:50;;;;;;;8.88;7.97;;;2.30;99.90;;;;;;5068342;28;20207;-83
2022/04/10 05:06:17;;;;;;;7.72;6.82;;;2.30;99.90;;;;;;5068391;28;20270;-82
2022/04/10 05:08:46;;;;;;;8.30;7.50;;;3.50;99.90;;;;;;5068943;28;20207;-82
2022/04/10 05:11:13;;;;;;;12.38;7.15;;;2.30;99.90;;;;;;5069054;28;20306;-82
2022/04/10 05:13:40;;;;;;;7.93;6.68;;;2.80;99.90;;;;;;5069022;28;20207;-83
2022/04/10 05:16:08;;;;;;;11.73;7.60;;;2.40;99.90;;;;;;5066692;28;20323;-83
2022/04/10 05:18:35;;;;;;;12.23;8.00;;;2.40;99.90;;;;;;5068877;28;20203;-82
2022/04/10 05:21:04;;;;;;;8.30;7.32;;;2.50;99.90;;;;;;5068820;28;20245;-83
2022/04/10 05:23:31;;;;;;;8.10;7.32;;;2.50;99.90;;;;;;5068779;28;20199;-82
2022/04/10 05:25:58;;;;;;;7.90;6.90;;;1.70;99.90;;;;;;5067969;28;20305;-82
2022/04/10 05:28:25;;;;;;;15.68;7.75;;;2.50;99.90;;;;;;5068385;28;20210;-82
2022/04/10 05:30:52;;;;;;;7.78;6.95;;;2.50;99.90;;;;;;5068039;28;20249;-82
2022/04/10 05:33:19;;;;;;;9.10;6.70;;;2.60;99.90;;;;;;5068731;28;20217;-82
2022/04/10 05:35:47;;;;;;;7.82;7.00;;;2.60;99.90;;;;;;5066950;28;20749;-82
2022/04/10 05:38:15;;;;;;;11.20;8.00;;;2.60;99.90;;;;;;5068570;28;20221;-82
2022/04/10 05:40:42;;;;;;;8.48;6.97;;;2.60;99.90;;;;;;5067915;28;20735;-82
2022/04/10 05:43:09;;;;;;;7.97;6.88;;;2.50;99.90;;;;;;5068075;28;20251;-82
2022/04/10 05:45:35;;;;;;;8.27;7.22;;;2.60;99.90;;;;;;5067264;28;20227;-82
2022/04/10 05:48:03;;;;;;;8.43;7.60;;;2.70;99.90;;;;;;5068251;28;20195;-83
2022/04/10 05:50:29;;;;;;;10.85;7.10;;;2.70;99.90;;;;;;5068149;28;20203;-82
2022/04/10 05:52:56;;;;;;;7.10;6.45;;;2.70;99.90;;;;;;5068068;28;20292;-82
2022/04/10 05:55:28;;;;;;;6.85;6.25;;;2.70;99.90;;;;;;5068388;28;20774;-82
2022/04/10 05:57:55;;;;;;;8.75;7.55;;;2.70;99.90;;;;;;5072090;28;20203;-82
2022/04/10 06:00:23;;;;;;;7.63;6.22;;;2.70;99.90;;;;;;5071797;28;20231;-83
2022/04/10 06:02:51;;;;;;;6.97;6.28;;;2.70;99.90;;;;;;5071753;28;20207;-82
2022/04/10 06:05:19;;;;;;;7.95;6.53;;;2.80;99.90;;;;;;5070629;28;20211;-82
2022/04/10 06:07:46;;;;;;;6.20;5.43;;;2.80;99.90;;;;;;5071664;28;20729;-82
2022/04/10 06:10:13;;;;;;;7.78;6.15;;;2.90;99.90;;;;;;5071461;28;20260;-82
2022/04/10 06:12:42;;;;;;;10.93;7.80;;;3.10;99.90;;;;;;5071455;28;20218;-82
2022/04/10 06:15:10;;;;;;;9.13;7.15;;;3.10;99.90;;;;;;5070916;28;20735;-82
2022/04/10 06:17:37;;;;;;;6.68;6.00;;;3.30;99.90;;;;;;5071287;28;20688;-82
2022/04/10 06:20:04;;;;;;;7.20;5.70;;;3.40;99.90;;;;;;5071440;28;20546;-82
2022/04/10 06:22:31;;;;;;;7.55;6.65;;;3.60;99.60;;;;;;5071350;28;20207;-82
2022/04/10 06:24:58;;;;;;;6.40;5.80;;;3.70;99.60;;;;;;5071405;28;20719;-82
2022/04/10 06:27:25;;;;;;;6.13;5.53;;;3.80;99.10;;;;;;5070812;28;20727;-82
2022/04/10 06:29:53;;;;;;;5.65;5.22;;;3.90;98.60;;;;;;5071490;28;20207;-82
2022/04/10 06:32:20;;;;;;;8.55;6.10;;;3.90;98.60;;;;;;5071210;28;20531;-82
2022/04/10 06:34:47;;;;;;;6.00;5.40;;;3.90;98.80;;;;;;5070159;28;20640;-82
2022/04/10 06:37:14;;;;;;;7.60;5.50;;;3.90;98.80;;;;;;5070703;28;20203;-82
2022/04/10 06:39:41;;;;;;;7.70;6.10;;;4.00;98.80;;;;;;5070380;28;20674;-82
2022/04/10 06:42:09;;;;;;;6.80;5.45;;;4.10;98.20;;;;;;5051335;28;20299;-83
2022/04/10 06:44:37;;;;;;;7.22;5.90;;;4.10;98.10;;;;;;5051442;28;20277;-82
2022/04/10 06:47:05;;;;;;;7.03;5.90;;;4.20;97.40;;;;;;5049977;28;20240;-82
2022/04/10 06:49:32;;;;;;;9.77;5.50;;;4.10;97.50;;;;;;5051471;28;20301;-82
2022/04/10 06:52:00;;;;;;;6.28;5.10;;;4.20;97.60;;;;;;5050641;28;20210;-83
2022/04/10 06:54:27;;;;;;;7.95;6.00;;;4.30;97.40;;;;;;5050508;28;20212;-82
2022/04/10 06:56:53;;;;;;;5.75;5.18;;;4.30;97.10;;;;;;5050098;28;20208;-82
2022/04/10 06:59:21;;;;;;;6.50;5.07;;;4.40;97.20;;;;;;5051109;28;20235;-82
2022/04/10 07:01:48;;;;;;;6.82;6.22;;;4.50;97.30;;;;;;5050693;28;20216;-82
2022/04/10 07:04:16;;;;;;;5.93;5.40;;;4.50;96.70;;;;;;5057550;28;20231;-82
2022/04/10 07:06:46;;;;;;;6.15;5.55;;;4.70;96.80;;;;;;5068997;28;20701;-82
2022/04/10 07:09:14;;;;;;;6.18;5.57;;;4.70;96.50;;;;;;5070466;28;20211;-82
2022/04/10 07:11:41;;;;;;;9.38;6.18;;;4.60;95.90;;;;;;5070713;28;20223;-82
2022/04/10 07:14:08;;;;;;;6.45;5.80;;;4.80;96.20;;;;;;5070811;28;20227;-82
2022/04/10 07:16:35;;;;;;;5.80;5.28;;;4.70;95.80;;;;;;5068380;28;20230;-83
2022/04/10 07:19:01;;;;;;;5.68;5.18;;;4.90;95.80;;;;;;5070001;28;20246;-82
2022/04/10 07:24:15;;;;;;;8.75;6.03;;;4.90;95.50;;;;;;5070165;28;20199;-82
2022/04/10 07:26:41;;;;;;;6.45;5.82;;;5.00;95.60;;;;;;5069604;28;20231;-82
2022/04/10 07:29:12;;;;;;;6.85;5.30;;;5.00;95.50;;;;;;5070687;28;20291;-82
2022/04/10 07:31:39;;;;;;;5.53;4.88;;;5.10;95.50;;;;;;5069975;28;20670;-82
2022/04/10 07:34:06;;;;;;;6.35;5.75;;;5.10;94.90;;;;;;5069091;28;20222;-82
2022/04/10 07:36:34;;;;;;;8.07;5.90;;;5.10;94.80;;;;;;5069355;28;20207;-82
2022/04/10 07:39:01;;;;;;;6.20;5.38;;;5.20;95.40;;;;;;5069884;28;20642;-82
2022/04/10 07:41:28;;;;;;;6.50;5.90;;;5.30;94.50;;;;;;5053987;28;20277;-82
2022/04/10 07:43:55;;;;;;;6.82;5.90;;;5.40;94.70;;;;;;5049822;28;20243;-82
2022/04/10 07:49:06;;;;;;;9.15;5.60;;;5.60;99.80;;;;;;5049569;28;20235;-82
2022/04/10 07:51:34;;;;;;;5.88;4.88;;;5.70;94.30;;;;;;5049647;28;20250;-82
2022/04/10 07:54:01;;;;;;;8.00;5.32;;;5.60;93.30;;;;;;5049753;28;20660;-82
2022/04/10 07:56:28;;;;;;;6.68;6.10;;;5.70;94.40;;;;;;5048615;28;20228;-82
2022/04/10 07:58:55;;;;;;;7.97;6.03;;;5.70;93.90;;;;;;5049588;28;20306;-82
2022/04/10 08:01:22;;;;;;;5.65;5.07;;;5.80;93.90;;;;;;5049557;28;20212;-83
2022/04/10 08:03:51;;;;;;;7.97;5.97;;;6.00;94.40;;;;;;5052289;28;20249;-82
2022/04/10 08:06:19;;;;;;;8.70;6.20;;;6.00;93.10;;;;;;5068618;28;20630;-82
2022/04/10 08:08:47;;;;;;;7.15;5.70;;;6.30;92.60;;;;;;5069332;28;20211;-82
2022/04/10 08:11:14;;;;;;;5.82;4.78;;;5.90;91.70;;;;;;5068718;28;20306;-82
2022/04/10 08:13:41;;;;;;;6.47;5.18;;;6.00;91.90;;;;;;5069481;28;20203;-82
2022/04/10 08:16:08;;;;;;;5.22;4.70;;;6.10;91.90;;;;;;5068900;28;20303;-82
2022/04/10 08:18:35;;;;;;;11.30;5.53;;;6.00;91.50;;;;;;5068857;28;20231;-82
2022/04/10 08:21:02;;;;;;;5.70;5.00;;;6.10;92.10;;;;;;5069208;28;20208;-82
2022/04/10 08:23:29;;;;;;;5.40;4.90;;;6.10;91.00;;;;;;5069040;28;20859;-82
2022/04/10 08:25:57;;;;;;;5.15;4.15;;;6.30;90.90;;;;;;5068189;28;20243;-82
2022/04/10 08:28:24;;;;;;;6.22;5.00;;;6.30;90.50;;;;;;5069068;28;20749;-82
2022/04/10 08:30:52;;;;;;;7.65;5.20;;;6.50;94.30;;;;;;5069290;28;20651;-82
2022/04/10 08:33:19;;;;;;;7.35;5.00;;;6.60;90.00;;;;;;5068942;28;20213;-81
2022/04/10 08:35:46;;;;;;;4.40;4.00;;;6.80;90.40;;;;;;5067472;28;20210;-82
2022/04/10 08:38:12;;;;;;;4.03;3.72;;;6.90;89.10;;;;;;5069336;28;20238;-82
2022/04/10 08:40:40;;;;;;;5.45;4.43;;;7.00;90.40;;;;;;5068881;28;20254;-82
2022/04/10 08:43:09;;;;;;;6.20;4.82;;;7.10;93.00;;;;;;5068814;28;20207;-82
2022/04/10 08:45:38;;;;;;;5.00;4.50;;;7.20;88.70;;;;;;5068404;28;20228;-82
2022/04/10 08:48:06;;;;;;;3.75;3.45;;;7.20;86.30;;;;;;5069001;28;20251;-82
2022/04/10 08:50:33;;;;;;;3.83;3.28;;;7.20;85.10;;;;;;5069116;28;20306;-82
2022/04/10 08:53:00;;;;;;;5.15;3.97;;;7.00;91.80;;;;;;5068764;28;20248;-82
2022/04/10 08:55:27;;;;;;;4.95;4.55;;;7.40;86.60;;;;;;5068257;28;20231;-82
2022/04/10 08:57:54;;;;;;;5.07;4.13;;;7.10;86.50;;;;;;5069576;28;20324;-82
2022/04/10 09:00:23;;;;;;;4.38;3.97;;;7.20;86.50;;;;;;5069073;28;20208;-82
2022/04/10 09:02:51;;;;;;;5.75;4.72;;;7.00;83.50;;;;;;5069389;28;20284;-82
2022/04/10 09:05:20;;;;;;;6.15;4.57;;;6.90;85.20;;;;;;5067878;28;20268;-82
2022/04/10 09:08:06;;;;;;;4.30;3.90;;;6.90;82.90;;;;;;5068587;28;20680;-82
2022/04/10 09:10:54;;;;;;;8.30;4.32;;;6.80;83.10;;;;;;5068349;28;20638;-82
2022/04/10 09:13:26;;;;;;;5.55;4.00;;;6.80;84.80;;;;;;5068392;28;20200;-82
2022/04/10 09:16:02;;;;;;;6.63;4.30;;;6.90;84.40;;;;;;5067484;28;20208;-82
2022/04/10 09:18:29;;;;;;;28.80;19.90;;;6.90;83.30;;;;;;5068328;28;20223;-82
2022/04/10 09:21:10;;;;;;;6.10;4.35;;;7.10;83.00;;;;;;5068577;28;20220;-82
2022/04/10 09:23:37;;;;;;;5.10;3.65;;;7.40;81.30;;;;;;5066233;28;20305;-82
2022/04/10 09:26:04;;;;;;;4.07;3.78;;;7.50;80.70;;;;;;5067450;28;20243;-82
2022/04/10 09:28:44;;;;;;;3.90;3.55;;;7.50;80.10;;;;;;5068492;28;20262;-82
2022/04/10 09:31:32;;;;;;;3.55;3.17;;;7.40;79.20;;;;;;5070657;28;20722;-82
2022/04/10 09:34:01;;;;;;;3.58;3.05;;;7.30;76.70;;;;;;5071469;28;20213;-82
2022/04/10 09:36:39;;;;;;;4.22;3.83;;;7.40;82.30;;;;;;5071222;28;20201;-82
2022/04/10 09:39:09;;;;;;;4.05;3.75;;;7.50;80.30;;;;;;5072478;28;20210;-82
2022/04/10 09:41:36;;;;;;;3.85;3.45;;;7.40;78.20;;;;;;5070760;28;20254;-82
2022/04/10 09:44:25;;;;;;;4.22;3.10;;;7.30;78.00;;;;;;5071989;28;20741;-82
2022/04/10 09:47:02;;;;;;;4.93;4.40;;;7.30;77.90;;;;;;5071231;28;20604;-82
2022/04/10 09:49:33;;;;;;;4.10;3.70;;;7.00;88.70;;;;;;5071852;28;20295;-82
2022/04/10 09:52:05;;;;;;;3.75;3.45;;;7.20;78.30;;;;;;5071848;28;20214;-82
2022/04/10 09:54:40;;;;;;;6.53;4.53;;;7.20;76.80;;;;;;5071650;28;20211;-82
2022/04/10 09:57:12;;;;;;;9.05;5.30;;;7.20;77.30;;;;;;5071110;28;20806;-82
2022/04/10 09:59:43;;;;;;;5.53;4.88;;;7.40;78.90;;;;;;5071308;28;20346;-82
2022/04/10 10:02:13;;;;;;;10.18;6.10;;;7.70;78.80;;;;;;5070650;28;20656;-82
2022/04/10 10:04:41;;;;;;;8.40;5.22;;;8.10;78.50;;;;;;5071394;28;20736;-82
2022/04/10 10:07:10;;;;;;;4.18;3.83;;;8.40;75.40;;;;;;5069514;28;20219;-82
2022/04/10 10:09:38;;;;;;;5.17;4.43;;;8.60;77.30;;;;;;5071994;28;20286;-82
2022/04/10 10:12:06;;;;;;;8.88;7.97;;;8.70;75.20;;;;;;5071610;28;21201;-82
2022/04/10 10:14:35;;;;;;;4.50;4.10;;;8.70;68.30;;;;;;5071271;28;20666;-82
2022/04/10 10:17:04;;;;;;;3.73;3.37;;;8.80;70.90;;;;;;5070871;28;20648;-82
2022/04/10 10:19:34;;;;;;;3.50;3.20;;;8.60;69.20;;;;;;5070714;28;20631;-82
2022/04/10 10:22:01;;;;;;;3.73;3.20;;;8.40;67.20;;;;;;5071249;28;21076;-82
2022/04/10 10:24:34;;;;;;;5.67;5.17;;;8.30;69.90;;;;;;5072838;28;20724;-82
2022/04/10 10:27:18;;;;;;;7.78;6.85;;;8.10;71.20;;;;;;5070698;28;20656;-82
2022/04/10 10:30:08;;;;;;;5.90;5.30;;;8.10;69.70;;;;;;5071612;28;20214;-82
2022/04/10 10:32:41;;;;;;;4.80;3.80;;;7.70;72.30;;;;;;5071520;28;20209;-82
2022/04/10 10:35:11;;;;;;;4.93;4.53;;;7.60;75.80;;;;;;5069286;28;20213;-82
2022/04/10 10:37:50;;;;;;;9.38;8.57;;;7.60;86.70;;;;;;5071061;28;20210;-82
2022/04/10 10:40:18;;;;;;;6.15;5.50;;;7.70;78.10;;;;;;5071283;28;20212;-82
2022/04/10 10:42:46;;;;;;;9.10;6.45;;;7.70;78.70;;;;;;5071094;28;20719;-82
2022/04/10 10:45:32;;;;;;;7.20;6.47;;;7.50;79.00;;;;;;5070197;28;20253;-82
2022/04/10 10:48:18;;;;;;;7.00;6.30;;;7.80;81.20;;;;;;5070917;28;20234;-82
2022/04/10 10:50:46;;;;;;;6.20;5.60;;;7.70;79.80;;;;;;5070383;28;20313;-82
2022/04/10 10:53:13;;;;;;;7.50;6.80;;;7.50;79.10;;;;;;5070826;28;20289;-82
2022/04/10 10:55:49;;;;;;;6.32;5.40;;;7.40;83.70;;;;;;5069999;28;20210;-82
2022/04/10 10:58:30;;;;;;;6.65;5.88;;;7.30;83.90;;;;;;5070900;28;20199;-82
2022/04/10 11:01:03;;;;;;;13.40;10.00;;;7.10;83.50;;;;;;5070820;28;20240;-82
2022/04/10 11:03:30;;;;;;;14.43;13.27;;;7.00;85.20;;;;;;5070176;28;20209;-82
2022/04/10 11:06:06;;;;;;;9.02;8.13;;;7.10;86.70;;;;;;5049717;28;20288;-82
2022/04/10 11:08:41;;;;;;;5.88;5.38;;;7.20;85.40;;;;;;5050430;28;20530;-82
2022/04/10 11:11:08;;;;;;;9.10;5.72;;;7.30;84.30;;;;;;5050405;28;20802;-82
2022/04/10 11:13:39;;;;;;;8.05;6.30;;;7.60;85.90;;;;;;5050478;28;20246;-82
2022/04/10 11:16:11;;;;;;;14.43;5.75;;;8.00;87.90;;;;;;5049670;28;20210;-82
2022/04/10 11:18:42;;;;;;;6.50;5.28;;;8.30;87.00;;;;;;5050114;28;20207;-82
2022/04/10 11:21:14;;;;;;;5.70;4.40;;;8.00;84.50;;;;;;5050361;28;20243;-82
2022/04/10 11:23:45;;;;;;;6.65;6.05;;;7.90;82.80;;;;;;5050542;28;20222;-83
2022/04/10 11:26:14;;;;;;;6.32;5.72;;;6.90;92.60;;;;;;5049677;28;20214;-84
2022/04/10 11:29:03;;;;;;;5.18;4.65;;;6.80;86.60;;;;;;5050313;28;20288;-84
2022/04/10 11:31:34;;;;;;;6.75;5.95;;;6.60;90.30;;;;;;5050461;28;20271;-84
2022/04/10 11:34:12;;;;;;;6.25;5.60;;;6.70;91.60;;;;;;5049567;28;20253;-83
2022/04/10 11:36:56;;;;;;;6.15;5.55;;;6.50;90.50;;;;;;5049598;28;20231;-83
2022/04/10 11:39:28;;;;;;;5.97;5.45;;;6.60;91.50;;;;;;5049848;28;20300;-83
2022/04/10 11:41:58;;;;;;;6.35;5.85;;;6.70;92.00;;;;;;5068536;28;20204;-83
2022/04/10 11:44:26;;;;;;;8.88;5.18;;;6.90;93.10;;;;;;5070098;28;20212;-83
2022/04/10 11:46:52;;;;;;;6.30;4.78;;;7.30;95.80;;;;;;5069151;28;20224;-83
2022/04/10 11:49:20;;;;;;;6.38;4.75;;;7.30;90.60;;;;;;5069990;28;20207;-83
2022/04/10 11:51:53;;;;;;;7.07;4.72;;;7.30;88.50;;;;;;5069932;28;20737;-83
2022/04/10 11:54:27;;;;;;;5.50;5.00;;;7.40;89.50;;;;;;5069170;28;20209;-83
2022/04/10 11:56:55;;;;;;;5.18;4.63;;;7.40;90.00;;;;;;5069153;28;20312;-83
2022/04/10 11:59:22;;;;;;;6.57;5.43;;;7.70;90.40;;;;;;5069642;28;20759;-83
2022/04/10 12:01:50;;;;;;;15.88;11.70;;;7.90;90.40;;;;;;5069671;28;20240;-82
2022/04/10 12:04:19;;;;;;;6.95;6.35;;;8.90;93.90;;;;;;5062910;28;20677;-83
2022/04/10 12:06:46;;;;;;;5.30;4.80;;;9.10;89.10;;;;;;5049253;28;20572;-83
2022/04/10 12:09:15;;;;;;;6.10;4.43;;;10.50;83.10;;;;;;5081621;28;20715;-83
2022/04/10 12:11:43;;;;;;;5.97;5.47;;;11.20;81.20;;;;;;5049569;28;21186;-83
2022/04/10 12:14:18;;;;;;;5.07;4.67;;;10.10;82.40;;;;;;5081449;28;21579;-83
2022/04/10 12:16:44;;;;;;;7.77;3.97;;;10.10;75.20;;;;;;5048989;28;20705;-83
2022/04/10 12:19:11;;;;;;;5.73;5.20;;;9.90;77.80;;;;;;5049464;28;20604;-83
2022/04/10 12:21:47;;;;;;;4.90;4.50;;;9.60;80.80;;;;;;5049567;28;20623;-83
2022/04/10 12:24:20;;;;;;;4.70;4.30;;;9.50;76.60;;;;;;5050099;28;20654;-82
2022/04/10 12:26:47;;;;;;;4.60;4.20;;;9.80;76.20;;;;;;5048454;28;20623;-83
2022/04/10 12:29:14;;;;;;;6.23;5.63;;;10.10;76.10;;;;;;5049216;28;20747;-82
2022/04/10 12:31:42;;;;;;;5.63;5.10;;;10.00;75.70;;;;;;5048758;28;20741;-83
2022/04/10 12:34:11;;;;;;;8.53;5.50;;;10.30;76.20;;;;;;5047439;28;20662;-83
2022/04/10 12:36:46;;;;;;;6.30;5.70;;;10.40;76.30;;;;;;5048446;28;20626;-83
2022/04/10 12:39:25;;;;;;;5.17;4.70;;;10.50;71.50;;;;;;5048763;28;20717;-83
2022/04/10 12:42:02;;;;;;;5.60;4.70;;;10.80;74.90;;;;;;5066931;28;20613;-83
2022/04/10 12:44:29;;;;;;;4.93;4.03;;;11.00;72.60;;;;;;5068928;28;20624;-83
2022/04/10 12:46:57;;;;;;;5.63;4.43;;;10.90;79.30;;;;;;5068342;28;20621;-83
2022/04/10 12:49:25;;;;;;;4.93;4.40;;;10.90;72.60;;;;;;5068408;28;21232;-83
2022/04/10 12:51:54;;;;;;;3.60;3.23;;;11.00;67.80;;;;;;5068468;28;21227;-83
2022/04/10 12:54:35;;;;;;;3.60;3.20;;;10.80;62.50;;;;;;5068806;28;20717;-83
2022/04/10 12:57:03;;;;;;;5.40;4.77;;;11.00;62.70;;;;;;5067826;28;21285;-82
2022/04/10 12:59:39;;;;;;;4.33;3.77;;;10.90;67.10;;;;;;5068542;28;20661;-82
2022/04/10 13:02:10;;;;;;;4.43;4.13;;;11.20;68.70;;;;;;5068795;28;20663;-83
2022/04/10 13:04:37;;;;;;;4.40;4.00;;;10.70;67.90;;;;;;5058156;28;20622;-83
2022/04/10 13:07:04;;;;;;;5.33;4.30;;;10.30;68.90;;;;;;5047465;28;20724;-82
2022/04/10 13:09:31;;;;;;;5.63;3.60;;;10.00;68.20;;;;;;5048285;28;20716;-83